createdAt,value
2019-05-23T00:02:47.000Z,6.9
2019-05-23T00:06:10.000Z,7.2
2019-05-23T00:09:36.000Z,7.1
2019-05-23T00:13:01.000Z,7
2019-05-23T00:16:27.000Z,7
2019-05-23T00:19:52.000Z,7
2019-05-23T00:23:19.000Z,7.2
2019-05-23T00:26:45.000Z,7.3
2019-05-23T00:30:10.000Z,7.3
2019-05-23T00:33:37.000Z,6.9
2019-05-23T00:37:06.000Z,7.4
2019-05-23T00:40:31.000Z,6.9
2019-05-23T00:44:01.000Z,6.9
2019-05-23T00:47:29.000Z,6.9
2019-05-23T00:50:56.000Z,7
2019-05-23T00:54:24.000Z,6.9
2019-05-23T00:57:52.000Z,6.9
2019-05-23T01:01:23.000Z,6.9
2019-05-23T01:04:51.000Z,6.7
2019-05-23T01:08:16.000Z,6.1
2019-05-23T01:11:52.000Z,6.5
2019-05-23T01:15:18.000Z,7.1
2019-05-23T01:18:49.000Z,7.1
2019-05-23T01:22:18.000Z,7.4
2019-05-23T01:25:46.000Z,7
2019-05-23T01:29:20.000Z,6.8
2019-05-23T01:33:01.000Z,8.1
2019-05-23T01:36:28.000Z,7.7
2019-05-23T01:40:02.000Z,7.5
2019-05-23T01:43:40.000Z,7.4
2019-05-23T01:47:15.000Z,7.5
2019-05-23T01:50:48.000Z,7.3
2019-05-23T01:54:19.000Z,7.2
2019-05-23T01:57:49.000Z,7.2
2019-05-23T02:01:25.000Z,7.3
2019-05-23T02:05:04.000Z,7.4
2019-05-23T02:08:38.000Z,7.1
2019-05-23T02:12:08.000Z,7.4
2019-05-23T02:15:39.000Z,7.4
2019-05-23T02:19:24.000Z,8
2019-05-23T02:22:57.000Z,7.7
2019-05-23T02:26:35.000Z,7.4
2019-05-23T02:30:13.000Z,7.4
2019-05-23T02:34:04.000Z,7.4
2019-05-23T02:37:48.000Z,7.3
2019-05-23T02:41:31.000Z,8
2019-05-23T02:45:04.000Z,7.4
2019-05-23T02:48:48.000Z,7.3
2019-05-23T02:55:49.000Z,9.4
2019-05-23T02:59:12.000Z,8.1
2019-05-23T03:02:47.000Z,7.7
2019-05-23T03:06:10.000Z,7.7
2019-05-23T03:09:33.000Z,7.8
2019-05-23T03:12:57.000Z,8
2019-05-23T03:16:20.000Z,7.8
2019-05-23T03:19:42.000Z,8
2019-05-23T03:23:08.000Z,8.4
2019-05-23T03:26:31.000Z,8
2019-05-23T03:29:55.000Z,7.8
2019-05-23T03:33:25.000Z,7.9
2019-05-23T03:36:48.000Z,8.1
2019-05-23T03:40:11.000Z,7.9
2019-05-23T03:43:35.000Z,8.2
2019-05-23T03:47:03.000Z,8.8
2019-05-23T03:50:27.000Z,8.9
2019-05-23T03:53:50.000Z,8.2
2019-05-23T03:57:13.000Z,8.6
2019-05-23T04:00:42.000Z,8
2019-05-23T04:04:05.000Z,7.9
2019-05-23T04:07:33.000Z,9
2019-05-23T04:10:57.000Z,9.4
2019-05-23T04:14:23.000Z,9.3
2019-05-23T04:17:48.000Z,9.5
2019-05-23T04:21:14.000Z,8.8
2019-05-23T04:24:38.000Z,9.3
2019-05-23T04:28:01.000Z,9.4
2019-05-23T04:31:29.000Z,9.9
2019-05-23T04:34:54.000Z,10.4
2019-05-23T04:38:22.000Z,10.8
2019-05-23T04:46:05.000Z,10.6
2019-05-23T04:49:36.000Z,8.3
2019-05-23T04:53:05.000Z,10.2
2019-05-23T04:56:37.000Z,10.3
2019-05-23T05:00:02.000Z,9.9
2019-05-23T05:03:34.000Z,10.1
2019-05-23T05:07:08.000Z,10.8
2019-05-23T05:10:35.000Z,9.9
2019-05-23T05:14:04.000Z,10.8
2019-05-23T05:17:35.000Z,12.1
2019-05-23T05:21:04.000Z,11.4
2019-05-23T05:24:41.000Z,10.5
2019-05-23T05:28:09.000Z,12.9
2019-05-23T05:31:33.000Z,11.2
2019-05-23T05:35:05.000Z,9.4
2019-05-23T05:38:31.000Z,17
2019-05-23T05:42:02.000Z,11.4
2019-05-23T05:45:27.000Z,12
2019-05-23T05:48:59.000Z,11.1
2019-05-23T05:52:32.000Z,11
2019-05-23T05:56:03.000Z,13.7
2019-05-23T05:59:34.000Z,16.3
2019-05-23T06:03:07.000Z,12.2
2019-05-23T06:06:44.000Z,15.1
2019-05-23T06:10:28.000Z,12.7
2019-05-23T06:14:04.000Z,10.9
2019-05-23T06:17:35.000Z,13.8
2019-05-23T06:21:14.000Z,13
2019-05-23T06:24:46.000Z,14.2
2019-05-23T06:28:27.000Z,12.3
2019-05-23T06:32:00.000Z,11
2019-05-23T06:35:37.000Z,10.6
2019-05-23T06:39:21.000Z,13
2019-05-23T06:46:21.000Z,12.2
2019-05-23T06:49:44.000Z,11.1
2019-05-23T06:53:08.000Z,10.5
2019-05-23T06:56:32.000Z,10.6
2019-05-23T06:59:55.000Z,10.9
2019-05-23T07:03:18.000Z,11.1
2019-05-23T07:06:57.000Z,11.4
2019-05-23T07:10:20.000Z,12.4
2019-05-23T07:13:46.000Z,13.9
2019-05-23T07:17:10.000Z,14.1
2019-05-23T07:20:33.000Z,14
2019-05-23T07:23:59.000Z,14.8
2019-05-23T07:27:24.000Z,14.7
2019-05-23T07:30:50.000Z,15.2
2019-05-23T07:34:13.000Z,16.7
2019-05-23T07:37:36.000Z,14.8
2019-05-23T07:40:59.000Z,15.8
2019-05-23T07:44:24.000Z,14.8
2019-05-23T07:48:07.000Z,15.5
2019-05-23T07:51:32.000Z,15.9
2019-05-23T07:54:55.000Z,16.6
2019-05-23T07:58:18.000Z,17.3
2019-05-23T08:01:41.000Z,17.6
2019-05-23T08:05:05.000Z,21.5
2019-05-23T08:08:33.000Z,21
2019-05-23T08:11:58.000Z,23.3
2019-05-23T08:15:27.000Z,24.2
2019-05-23T08:18:53.000Z,24.2
2019-05-23T08:22:19.000Z,22.1
2019-05-23T08:25:48.000Z,23.6
2019-05-23T08:29:15.000Z,22.1
2019-05-23T08:32:45.000Z,23
2019-05-23T08:36:13.000Z,23.2
2019-05-23T08:39:38.000Z,23.2
2019-05-23T08:43:01.000Z,23.1
2019-05-23T08:46:30.000Z,20.9
2019-05-23T08:49:58.000Z,23.9
2019-05-23T08:53:21.000Z,21.5
2019-05-23T08:56:48.000Z,27.1
2019-05-23T09:00:18.000Z,23.1
2019-05-23T09:03:45.000Z,21.8
2019-05-23T09:07:16.000Z,21.3
2019-05-23T09:10:46.000Z,23.6
2019-05-23T09:14:17.000Z,27
2019-05-23T09:17:50.000Z,26.4
2019-05-23T09:21:16.000Z,25.1
2019-05-23T09:24:50.000Z,21.6
2019-05-23T09:28:23.000Z,23.1
2019-05-23T09:31:52.000Z,26.3
2019-05-23T09:35:28.000Z,22.2
2019-05-23T09:39:01.000Z,20.6
2019-05-23T09:42:33.000Z,27.6
2019-05-23T09:46:02.000Z,20.9
2019-05-23T09:49:35.000Z,24.9
2019-05-23T09:53:19.000Z,27.6
2019-05-23T09:56:59.000Z,22.4
2019-05-23T10:00:30.000Z,28.4
2019-05-23T10:04:05.000Z,23.9
2019-05-23T10:07:45.000Z,23.3
2019-05-23T10:11:16.000Z,21
2019-05-23T10:14:50.000Z,22.1
2019-05-23T10:18:28.000Z,28
2019-05-23T10:22:04.000Z,22.8
2019-05-23T10:25:40.000Z,24.1
2019-05-23T10:29:16.000Z,28.4
2019-05-23T10:32:47.000Z,21.3
2019-05-23T10:36:22.000Z,25.2
2019-05-23T10:40:03.000Z,26.8
2019-05-23T10:43:45.000Z,20.8
2019-05-23T10:47:20.000Z,29.1
2019-05-23T10:50:58.000Z,21.4
2019-05-23T10:54:40.000Z,23.6
2019-05-23T10:58:25.000Z,27
2019-05-23T11:02:06.000Z,24.7
2019-05-23T11:05:43.000Z,25.1
2019-05-23T11:09:27.000Z,18.9
2019-05-23T11:13:18.000Z,17.1
2019-05-23T11:16:58.000Z,17.2
2019-05-23T11:20:38.000Z,16
2019-05-23T11:27:57.000Z,16.5
2019-05-23T11:31:21.000Z,16.1
2019-05-23T11:34:44.000Z,16.2
2019-05-23T11:38:07.000Z,16.1
2019-05-23T11:41:42.000Z,15.5
2019-05-23T11:45:05.000Z,15.7
2019-05-23T11:48:30.000Z,16.9
2019-05-23T11:51:53.000Z,14.8
2019-05-23T11:55:23.000Z,12.4
2019-05-23T11:58:46.000Z,14.9
2019-05-23T12:02:10.000Z,16.1
2019-05-23T12:05:33.000Z,14.3
2019-05-23T12:08:58.000Z,15.1
2019-05-23T12:12:23.000Z,13.1
2019-05-23T12:15:47.000Z,12.7
2019-05-23T12:19:09.000Z,12.5
2019-05-23T12:22:33.000Z,13.8
2019-05-23T12:25:58.000Z,11.6
2019-05-23T12:29:22.000Z,11.7
2019-05-23T12:32:46.000Z,12.2
2019-05-23T12:36:09.000Z,15.4
2019-05-23T12:39:33.000Z,14.4
2019-05-23T12:42:57.000Z,13
2019-05-23T12:46:21.000Z,13.9
2019-05-23T12:49:46.000Z,14.6
2019-05-23T12:53:09.000Z,9.9
2019-05-23T12:56:32.000Z,12.1
2019-05-23T12:59:57.000Z,12.1
2019-05-23T13:03:20.000Z,12.4
2019-05-23T13:06:50.000Z,11.8
2019-05-23T13:10:13.000Z,13.3
2019-05-23T13:13:41.000Z,12.2
2019-05-23T13:17:05.000Z,8
2019-05-23T13:20:31.000Z,9.9
2019-05-23T13:23:54.000Z,10.8
2019-05-23T13:27:20.000Z,11.7
2019-05-23T13:30:50.000Z,12.2
2019-05-23T13:34:19.000Z,8.1
2019-05-23T13:37:45.000Z,8.8
2019-05-23T13:41:13.000Z,10.4
2019-05-23T13:44:41.000Z,11.7
2019-05-23T13:48:12.000Z,11.5
2019-05-23T13:51:48.000Z,9
2019-05-23T13:55:14.000Z,10.9
2019-05-23T13:58:45.000Z,7.4
2019-05-23T14:02:11.000Z,8.8
2019-05-23T14:05:44.000Z,6.2
2019-05-23T14:09:15.000Z,5.2
2019-05-23T14:12:56.000Z,4.9
2019-05-23T14:16:26.000Z,5
2019-05-23T14:19:57.000Z,6.5
2019-05-23T14:23:34.000Z,5.6
2019-05-23T14:27:16.000Z,6.6
2019-05-23T14:30:52.000Z,6.7
2019-05-23T14:34:26.000Z,6.4
2019-05-23T14:37:59.000Z,6.6
2019-05-23T14:41:27.000Z,6.2
2019-05-23T14:45:09.000Z,5.9
2019-05-23T14:48:46.000Z,6.3
2019-05-23T14:52:19.000Z,5.3
2019-05-23T14:55:52.000Z,5.5
2019-05-23T14:59:23.000Z,5.6
2019-05-23T15:02:58.000Z,5.1
2019-05-23T15:06:42.000Z,6
2019-05-23T15:10:26.000Z,5.4
2019-05-23T15:14:03.000Z,4.7
2019-05-23T15:17:26.000Z,5.7
2019-05-23T15:20:51.000Z,6.3
2019-05-23T15:24:14.000Z,5.8
2019-05-23T15:27:39.000Z,6.5
2019-05-23T15:31:02.000Z,7.4
2019-05-23T15:34:26.000Z,7
2019-05-23T15:37:52.000Z,7.1
2019-05-23T15:41:16.000Z,5.5
2019-05-23T15:44:39.000Z,5.9
2019-05-23T15:48:03.000Z,7.8
2019-05-23T15:51:28.000Z,7.6
2019-05-23T15:54:51.000Z,8.1
2019-05-23T15:58:22.000Z,5.6
2019-05-23T16:01:47.000Z,8.5
2019-05-23T16:05:10.000Z,8.5
2019-05-23T16:08:36.000Z,6.6
2019-05-23T16:12:03.000Z,5.8
2019-05-23T16:15:26.000Z,6.3
2019-05-23T16:18:52.000Z,8.3
2019-05-23T16:22:19.000Z,7.6
2019-05-23T16:25:43.000Z,8.1
2019-05-23T16:29:10.000Z,8.3
2019-05-23T16:32:34.000Z,8.4
2019-05-23T16:35:57.000Z,7.7
2019-05-23T16:39:22.000Z,10.1
2019-05-23T16:43:08.000Z,7.6
2019-05-23T16:46:36.000Z,7.6
2019-05-23T16:50:04.000Z,7.8
2019-05-23T16:53:29.000Z,6.8
2019-05-23T16:56:52.000Z,8.6
2019-05-23T17:00:19.000Z,7.4
2019-05-23T17:03:56.000Z,8.8
2019-05-23T17:07:24.000Z,9.5
2019-05-23T17:10:51.000Z,10.9
2019-05-23T17:14:17.000Z,8.4
2019-05-23T17:17:44.000Z,10.3
2019-05-23T17:21:23.000Z,10.4
2019-05-23T17:24:51.000Z,8.1
2019-05-23T17:28:20.000Z,10.4
2019-05-23T17:31:49.000Z,9.5
2019-05-23T17:35:17.000Z,9.9
2019-05-23T17:38:48.000Z,9.5
2019-05-23T17:42:22.000Z,9
2019-05-23T17:45:51.000Z,9.6
2019-05-23T17:49:22.000Z,8.7
2019-05-23T17:52:53.000Z,8.4
2019-05-23T17:56:26.000Z,7.5
2019-05-23T17:59:54.000Z,7.4
2019-05-23T18:03:26.000Z,7.2
2019-05-23T18:07:04.000Z,7.6
2019-05-23T18:10:36.000Z,7.2
2019-05-23T18:14:04.000Z,7.6
2019-05-23T18:17:40.000Z,7.2
2019-05-23T18:21:13.000Z,7.9
2019-05-23T18:24:46.000Z,8.3
2019-05-23T18:28:23.000Z,7.7
2019-05-23T18:31:57.000Z,7.6
2019-05-23T18:35:31.000Z,7.9
2019-05-23T18:39:06.000Z,7.3
2019-05-23T18:42:40.000Z,7.3
2019-05-23T18:46:11.000Z,7.8
2019-05-23T18:49:51.000Z,8.4
2019-05-23T18:53:31.000Z,8.4
2019-05-23T18:57:11.000Z,8.4
2019-05-23T19:00:49.000Z,7.8
2019-05-23T19:04:27.000Z,8.1
2019-05-23T19:08:08.000Z,8.5
2019-05-23T19:11:44.000Z,8.7
2019-05-23T19:15:21.000Z,8.4
2019-05-23T19:19:02.000Z,8.7
2019-05-23T19:22:53.000Z,8.6
2019-05-23T19:28:41.000Z,8.9
2019-05-23T19:32:20.000Z,9.2
2019-05-23T19:36:02.000Z,9.1
2019-05-23T19:39:44.000Z,9.7
2019-05-23T19:43:40.000Z,9.9
2019-05-23T19:47:26.000Z,10.9
2019-05-23T19:51:09.000Z,10.3
2019-05-23T19:54:46.000Z,10.4
2019-05-23T19:59:40.000Z,10.3
2019-05-23T20:03:06.000Z,11
2019-05-23T20:06:28.000Z,10.3
2019-05-23T20:09:53.000Z,10.6
2019-05-23T20:13:16.000Z,11
2019-05-23T20:16:39.000Z,10.9
2019-05-23T20:20:02.000Z,11.4
2019-05-23T20:23:26.000Z,11.1
2019-05-23T20:26:54.000Z,10.8
2019-05-23T20:30:18.000Z,10.5
2019-05-23T20:33:43.000Z,10.5
2019-05-23T20:37:07.000Z,11
2019-05-23T20:40:31.000Z,10.6
2019-05-23T20:44:06.000Z,11.2
2019-05-23T20:47:30.000Z,11.6
2019-05-23T20:50:53.000Z,12
2019-05-23T20:54:21.000Z,12.1
2019-05-23T20:57:44.000Z,11.9
2019-05-23T21:01:08.000Z,11.7
2019-05-23T21:04:36.000Z,12.2
2019-05-23T21:08:01.000Z,12.4
2019-05-23T21:11:25.000Z,11.9
2019-05-23T21:14:50.000Z,12.1
2019-05-23T21:18:15.000Z,12
2019-05-23T21:21:38.000Z,11.9
2019-05-23T21:25:04.000Z,12.8
2019-05-23T21:28:31.000Z,12.3
2019-05-23T21:31:58.000Z,12.4
2019-05-23T21:35:23.000Z,12.1
2019-05-23T21:38:48.000Z,11.8
2019-05-23T21:42:15.000Z,11.6
2019-05-23T21:45:41.000Z,12.4
2019-05-23T21:49:05.000Z,12.8
2019-05-23T21:52:29.000Z,12
2019-05-23T21:55:57.000Z,12.6
2019-05-23T21:59:23.000Z,12.1
2019-05-23T22:02:50.000Z,12.4
2019-05-23T22:06:18.000Z,12.3
2019-05-23T22:09:49.000Z,12.2
2019-05-23T22:13:19.000Z,11.9
2019-05-23T22:16:43.000Z,12.4
2019-05-23T22:20:12.000Z,12.6
2019-05-23T22:23:38.000Z,11.7
2019-05-23T22:27:11.000Z,13.3
2019-05-23T22:30:42.000Z,12.7
2019-05-23T22:34:09.000Z,12.6
2019-05-23T22:37:36.000Z,12.6
2019-05-23T22:41:02.000Z,13.4
2019-05-23T22:44:35.000Z,12.7
2019-05-23T22:48:05.000Z,12.5
2019-05-23T22:51:36.000Z,12.5
2019-05-23T22:55:05.000Z,12.2
2019-05-23T22:58:36.000Z,13.6
2019-05-23T23:02:05.000Z,13.4
2019-05-23T23:05:38.000Z,13.1
2019-05-23T23:09:20.000Z,13.7
2019-05-23T23:12:55.000Z,13.4
2019-05-23T23:16:31.000Z,13.2
2019-05-23T23:20:05.000Z,13.7
2019-05-23T23:23:43.000Z,13.6
2019-05-23T23:27:11.000Z,13.4
2019-05-23T23:30:43.000Z,13.6
2019-05-23T23:34:27.000Z,14
2019-05-23T23:48:47.000Z,15.7
2019-05-23T23:54:49.000Z,14.7
2019-05-23T23:58:35.000Z,13.9
